createdAt,value
2022-10-16T00:01:33.387Z,14.10
2022-10-16T00:04:05.398Z,14.10
2022-10-16T00:06:38.457Z,14.00
2022-10-16T00:09:09.448Z,14.00
2022-10-16T00:11:44.001Z,14.00
2022-10-16T00:14:18.135Z,13.90
2022-10-16T00:16:55.602Z,13.90
2022-10-16T00:19:28.879Z,13.90
2022-10-16T00:22:01.573Z,13.90
2022-10-16T00:24:32.133Z,13.80
2022-10-16T00:27:02.377Z,13.80
2022-10-16T00:29:32.557Z,13.80
2022-10-16T00:32:02.630Z,13.80
2022-10-16T00:34:32.788Z,13.80
2022-10-16T00:37:09.976Z,13.80
2022-10-16T00:39:40.665Z,13.80
2022-10-16T00:42:13.281Z,13.80
2022-10-16T00:44:54.543Z,13.70
2022-10-16T00:47:31.328Z,13.80
2022-10-16T00:50:13.962Z,13.70
2022-10-16T00:52:53.738Z,13.80
2022-10-16T00:55:26.990Z,13.80
2022-10-16T00:58:01.778Z,13.80
2022-10-16T01:00:35.191Z,13.80
2022-10-16T01:03:26.919Z,14.00
2022-10-16T01:09:27.575Z,14.00
2022-10-16T01:12:13.825Z,14.10
2022-10-16T01:14:58.087Z,14.10
2022-10-16T01:17:45.238Z,14.10
2022-10-16T01:20:28.078Z,14.00
2022-10-16T01:23:14.314Z,14.00
2022-10-16T01:26:40.805Z,13.90
2022-10-16T01:29:23.280Z,13.80
2022-10-16T01:32:09.851Z,13.80
2022-10-16T01:34:49.674Z,13.80
2022-10-16T01:37:29.375Z,13.70
2022-10-16T01:40:09.528Z,13.70
2022-10-16T01:42:46.299Z,13.60
2022-10-16T01:45:22.950Z,13.60
2022-10-16T01:48:10.740Z,13.70
2022-10-16T01:50:47.729Z,13.80
2022-10-16T01:53:20.776Z,13.80
2022-10-16T01:55:53.889Z,13.80
2022-10-16T01:58:26.095Z,13.90
2022-10-16T02:00:59.496Z,13.90
2022-10-16T02:03:30.544Z,13.90
2022-10-16T02:06:04.005Z,14.00
2022-10-16T02:08:39.429Z,14.10
2022-10-16T02:11:10.160Z,14.10
2022-10-16T02:13:48.551Z,14.10
2022-10-16T02:16:30.383Z,14.20
2022-10-16T02:19:03.475Z,14.20
2022-10-16T02:21:44.711Z,14.20
2022-10-16T02:24:26.022Z,14.20
2022-10-16T02:27:05.195Z,14.10
2022-10-16T02:29:46.136Z,14.10
2022-10-16T02:32:25.575Z,14.00
2022-10-16T02:34:56.770Z,14.00
2022-10-16T02:37:28.480Z,14.00
2022-10-16T02:40:00.977Z,14.00
2022-10-16T02:42:41.101Z,14.00
2022-10-16T02:45:14.507Z,14.10
2022-10-16T02:47:47.174Z,14.20
2022-10-16T02:50:17.321Z,14.10
2022-10-16T02:52:47.606Z,14.20
2022-10-16T02:55:18.039Z,14.20
2022-10-16T02:57:48.262Z,14.30
2022-10-16T03:00:21.016Z,14.40
2022-10-16T03:02:56.490Z,14.50
2022-10-16T03:05:29.164Z,14.40
2022-10-16T03:08:13.449Z,14.40
2022-10-16T03:10:43.814Z,14.40
2022-10-16T03:13:13.818Z,14.40
2022-10-16T03:15:43.892Z,14.40
2022-10-16T03:18:24.545Z,14.40
2022-10-16T03:20:54.650Z,14.40
2022-10-16T03:23:24.741Z,14.50
2022-10-16T03:26:00.031Z,14.50
2022-10-16T03:28:30.166Z,14.50
2022-10-16T03:31:00.230Z,14.40
2022-10-16T03:33:32.924Z,14.40
2022-10-16T03:36:05.559Z,14.40
2022-10-16T03:38:35.882Z,14.40
2022-10-16T03:41:06.047Z,14.40
2022-10-16T03:43:42.359Z,14.40
2022-10-16T03:46:12.448Z,14.40
2022-10-16T03:48:47.606Z,14.40
2022-10-16T03:51:17.723Z,14.50
2022-10-16T03:53:50.816Z,14.50
2022-10-16T03:56:20.999Z,14.50
2022-10-16T03:58:51.097Z,14.50
2022-10-16T04:01:21.280Z,14.60
2022-10-16T04:03:53.960Z,14.60
2022-10-16T04:06:24.134Z,14.60
2022-10-16T04:08:57.175Z,14.60
2022-10-16T04:11:28.208Z,14.50
2022-10-16T04:13:58.295Z,14.50
2022-10-16T04:16:28.389Z,14.50
2022-10-16T04:19:01.084Z,14.50
2022-10-16T04:21:34.270Z,14.50
2022-10-16T04:24:04.322Z,14.60
2022-10-16T04:26:35.468Z,14.60
2022-10-16T04:29:20.639Z,14.60
2022-10-16T04:31:51.363Z,14.50
2022-10-16T04:34:24.028Z,14.50
2022-10-16T04:36:56.688Z,14.40
2022-10-16T04:39:26.735Z,14.40
2022-10-16T04:41:59.896Z,14.40
2022-10-16T04:44:32.745Z,14.30
2022-10-16T04:47:02.935Z,14.40
2022-10-16T04:49:38.705Z,14.40
2022-10-16T04:52:10.203Z,14.30
2022-10-16T04:54:40.271Z,14.30
2022-10-16T04:57:13.512Z,14.30
2022-10-16T04:59:45.965Z,14.30
2022-10-16T05:02:16.071Z,14.40
2022-10-16T05:04:50.808Z,14.40
2022-10-16T05:07:20.954Z,14.30
2022-10-16T05:09:51.035Z,14.30
2022-10-16T05:12:21.098Z,14.30
2022-10-16T05:14:53.439Z,14.30
2022-10-16T05:17:26.555Z,14.20
2022-10-16T05:19:59.605Z,14.10
2022-10-16T05:22:32.038Z,14.20
2022-10-16T05:25:02.108Z,14.10
2022-10-16T05:27:35.315Z,14.20
2022-10-16T05:30:08.569Z,14.20
2022-10-16T05:32:42.465Z,14.30
2022-10-16T05:35:15.233Z,14.20
2022-10-16T05:37:54.498Z,14.30
2022-10-16T05:40:24.661Z,14.20
2022-10-16T05:42:59.459Z,14.30
2022-10-16T05:45:30.363Z,14.30
2022-10-16T05:48:00.419Z,14.20
2022-10-16T05:50:46.406Z,14.20
2022-10-16T05:53:16.520Z,14.10
2022-10-16T05:55:46.606Z,14.10
2022-10-16T05:58:16.723Z,14.10
2022-10-16T06:00:46.863Z,14.10
2022-10-16T06:03:16.950Z,14.10
2022-10-16T06:05:56.292Z,14.20
2022-10-16T06:08:27.683Z,14.20
2022-10-16T06:11:05.971Z,14.20
2022-10-16T06:13:39.973Z,14.20
2022-10-16T06:16:11.531Z,14.20
2022-10-16T06:18:41.636Z,14.20
2022-10-16T06:21:17.826Z,14.10
2022-10-16T06:23:49.571Z,14.10
2022-10-16T06:26:24.952Z,14.00
2022-10-16T06:28:57.530Z,14.00
2022-10-16T06:31:31.726Z,13.90
2022-10-16T06:34:06.670Z,13.90
2022-10-16T06:36:39.355Z,13.90
2022-10-16T06:39:10.173Z,13.80
2022-10-16T06:41:40.599Z,13.80
2022-10-16T06:44:11.253Z,13.80
2022-10-16T06:46:55.709Z,13.90
2022-10-16T06:49:25.797Z,14.10
2022-10-16T06:51:58.519Z,14.20
2022-10-16T06:54:28.735Z,14.30
2022-10-16T06:57:01.002Z,14.30
2022-10-16T06:59:31.346Z,14.50
2022-10-16T07:02:01.521Z,14.70
2022-10-16T07:04:31.561Z,14.70
2022-10-16T07:07:06.997Z,14.70
2022-10-16T07:09:41.729Z,14.70
2022-10-16T07:12:11.899Z,14.60
2022-10-16T07:14:42.321Z,14.80
2022-10-16T07:17:12.480Z,14.90
2022-10-16T07:19:42.736Z,15.10
2022-10-16T07:22:15.435Z,15.30
2022-10-16T07:24:49.147Z,15.40
2022-10-16T07:27:23.397Z,15.40
2022-10-16T07:29:53.421Z,15.40
2022-10-16T07:32:27.059Z,15.40
2022-10-16T07:35:06.387Z,15.30
2022-10-16T07:37:48.695Z,15.30
2022-10-16T07:40:18.989Z,15.50
2022-10-16T07:42:49.126Z,15.70
2022-10-16T07:45:22.307Z,15.80
2022-10-16T07:47:55.464Z,16.10
2022-10-16T07:50:25.540Z,16.30
2022-10-16T07:52:58.221Z,16.60
2022-10-16T07:55:28.299Z,17.00
2022-10-16T07:57:59.115Z,17.10
2022-10-16T08:00:29.190Z,17.10
2022-10-16T08:03:03.092Z,17.10
2022-10-16T08:05:36.528Z,17.00
2022-10-16T08:08:09.189Z,16.80
2022-10-16T08:10:39.894Z,16.70
2022-10-16T08:13:18.643Z,16.50
2022-10-16T08:15:52.131Z,16.50
2022-10-16T08:18:24.761Z,16.90
2022-10-16T08:21:05.606Z,18.00
2022-10-16T08:23:38.623Z,19.10
2022-10-16T08:26:11.736Z,19.60
2022-10-16T08:28:42.521Z,21.00
2022-10-16T08:31:14.845Z,22.60
2022-10-16T08:33:48.349Z,24.00
2022-10-16T08:36:21.556Z,25.00
2022-10-16T08:38:59.475Z,24.80
2022-10-16T08:42:15.489Z,24.30
2022-10-16T08:45:23.959Z,23.60
2022-10-16T08:48:10.121Z,22.90
2022-10-16T08:50:44.335Z,22.30
2022-10-16T08:53:24.679Z,21.20
2022-10-16T08:55:59.491Z,20.80
2022-10-16T08:58:33.960Z,20.50
2022-10-16T09:01:08.212Z,20.30
2022-10-16T09:04:05.075Z,20.20
2022-10-16T09:06:49.410Z,20.20
2022-10-16T09:09:55.894Z,20.10
2022-10-16T09:12:39.403Z,20.50
2022-10-16T09:15:28.387Z,21.20
2022-10-16T09:18:22.443Z,21.90
2022-10-16T09:21:02.888Z,22.20
2022-10-16T09:23:40.953Z,22.30
2022-10-16T09:26:17.967Z,22.80
2022-10-16T09:28:50.780Z,23.80
2022-10-16T09:31:26.947Z,25.50
2022-10-16T09:34:07.289Z,27.00
2022-10-16T09:36:48.551Z,26.70
2022-10-16T09:39:18.610Z,26.10
2022-10-16T09:41:49.985Z,26.50
2022-10-16T09:44:33.979Z,27.60
2022-10-16T09:47:21.239Z,28.40
2022-10-16T09:50:05.269Z,28.20
2022-10-16T09:52:38.252Z,27.50
2022-10-16T09:55:19.766Z,26.80
2022-10-16T09:57:56.328Z,26.10
2022-10-16T10:00:33.155Z,24.90
2022-10-16T10:03:04.053Z,24.50
2022-10-16T10:05:34.293Z,25.00
2022-10-16T10:08:09.432Z,25.00
2022-10-16T10:10:46.232Z,25.10
2022-10-16T10:13:25.766Z,24.40
2022-10-16T10:16:01.516Z,23.80
2022-10-16T10:18:32.943Z,23.70
2022-10-16T10:21:07.103Z,23.50
2022-10-16T10:23:37.339Z,23.30
2022-10-16T10:26:16.680Z,23.70
2022-10-16T10:29:05.880Z,24.40
2022-10-16T10:31:52.792Z,25.00
2022-10-16T10:34:46.238Z,25.50
2022-10-16T10:37:50.059Z,25.80
2022-10-16T10:40:44.251Z,25.60
2022-10-16T10:43:34.006Z,25.00
2022-10-16T10:46:11.975Z,25.20
2022-10-16T10:49:21.240Z,26.40
2022-10-16T10:52:11.593Z,25.80
2022-10-16T10:54:58.156Z,26.10
2022-10-16T11:00:41.382Z,27.20
2022-10-16T11:03:28.151Z,27.20
2022-10-16T11:06:06.559Z,26.80
2022-10-16T11:08:44.939Z,25.80
2022-10-16T11:11:33.214Z,26.30
2022-10-16T11:17:11.028Z,25.70
2022-10-16T11:19:50.659Z,24.70
2022-10-16T11:22:30.597Z,24.30
2022-10-16T11:25:10.000Z,23.80
2022-10-16T11:27:51.314Z,23.70
2022-10-16T11:30:26.871Z,23.70
2022-10-16T11:33:32.545Z,24.20
2022-10-16T11:36:15.236Z,24.70
2022-10-16T11:38:57.059Z,24.80
2022-10-16T11:41:41.177Z,24.60
2022-10-16T11:44:30.583Z,24.00
2022-10-16T11:50:23.656Z,23.00
2022-10-16T11:53:04.371Z,22.60
2022-10-16T11:55:46.054Z,22.30
2022-10-16T11:58:29.509Z,22.30
2022-10-16T12:01:17.113Z,22.10
2022-10-16T12:03:52.431Z,22.00
2022-10-16T12:06:35.171Z,21.70
2022-10-16T12:09:06.338Z,21.40
2022-10-16T12:11:43.136Z,21.30
2022-10-16T12:15:11.183Z,21.30
2022-10-16T12:17:42.683Z,21.50
2022-10-16T12:20:36.199Z,21.60
2022-10-16T12:23:10.695Z,21.50
2022-10-16T12:25:49.812Z,21.60
2022-10-16T12:28:37.349Z,21.70
2022-10-16T12:31:14.571Z,21.80
2022-10-16T12:34:05.055Z,21.80
2022-10-16T12:36:48.307Z,21.70
2022-10-16T12:39:27.104Z,21.60
2022-10-16T12:42:35.730Z,21.40
2022-10-16T12:45:36.967Z,21.30
2022-10-16T12:48:29.184Z,21.30
2022-10-16T12:51:26.867Z,21.30
2022-10-16T12:54:04.163Z,21.40
2022-10-16T12:56:50.980Z,21.40
2022-10-16T12:59:42.024Z,21.50
2022-10-16T13:02:55.674Z,21.70
2022-10-16T13:05:45.640Z,21.70
2022-10-16T13:08:43.052Z,22.00
2022-10-16T13:11:27.430Z,22.10
2022-10-16T13:14:24.844Z,21.90
2022-10-16T13:17:10.069Z,22.00
2022-10-16T13:19:56.833Z,22.10
2022-10-16T13:22:36.897Z,22.10
2022-10-16T13:25:27.279Z,22.00
2022-10-16T13:28:11.791Z,22.00
2022-10-16T13:30:48.219Z,22.00
2022-10-16T13:33:27.134Z,21.90
2022-10-16T13:36:04.422Z,21.70
2022-10-16T13:38:39.807Z,21.60
2022-10-16T13:41:21.219Z,21.50
2022-10-16T13:43:57.117Z,21.50
2022-10-16T13:46:30.650Z,21.50
2022-10-16T13:49:06.260Z,21.50
2022-10-16T13:51:43.844Z,21.60
2022-10-16T13:54:17.452Z,21.60
2022-10-16T13:57:03.135Z,21.70
2022-10-16T13:59:45.052Z,21.80
2022-10-16T14:02:30.184Z,21.70
2022-10-16T14:05:03.414Z,21.70
2022-10-16T14:07:38.480Z,21.60
2022-10-16T14:10:24.221Z,21.40
2022-10-16T14:13:04.315Z,21.20
2022-10-16T14:15:38.040Z,21.20
2022-10-16T14:18:08.803Z,21.10
2022-10-16T14:20:42.457Z,21.20
2022-10-16T14:23:33.081Z,21.20
2022-10-16T14:26:19.180Z,21.20
2022-10-16T14:28:55.042Z,21.10
2022-10-16T14:31:31.696Z,21.00
2022-10-16T14:34:03.142Z,21.00
2022-10-16T14:36:34.499Z,21.00
2022-10-16T14:39:21.696Z,21.00
2022-10-16T14:41:55.231Z,21.00
2022-10-16T14:44:38.863Z,21.00
2022-10-16T14:47:23.259Z,20.90
2022-10-16T14:49:56.866Z,20.90
2022-10-16T14:52:37.132Z,20.80
2022-10-16T14:55:11.591Z,20.80
2022-10-16T14:57:49.940Z,20.60
2022-10-16T15:00:24.173Z,20.60
2022-10-16T15:02:55.171Z,20.50
2022-10-16T15:05:33.138Z,20.40
2022-10-16T15:08:03.207Z,20.40
2022-10-16T15:10:42.706Z,20.30
2022-10-16T15:13:16.570Z,20.20
2022-10-16T15:15:50.118Z,20.20
2022-10-16T15:18:21.465Z,20.10
2022-10-16T15:20:56.091Z,20.10
2022-10-16T15:26:19.720Z,19.90
2022-10-16T15:28:49.905Z,19.80
2022-10-16T15:31:19.997Z,19.80
2022-10-16T15:33:54.528Z,19.80
2022-10-16T15:36:39.579Z,19.70
2022-10-16T15:39:17.057Z,19.50
2022-10-16T15:41:52.213Z,19.40
2022-10-16T15:44:24.016Z,19.30
2022-10-16T15:46:54.413Z,19.30
2022-10-16T15:49:24.584Z,19.20
2022-10-16T15:51:55.945Z,19.20
2022-10-16T15:54:26.038Z,19.20
2022-10-16T15:56:58.737Z,19.20
2022-10-16T15:59:29.037Z,19.20
2022-10-16T16:02:01.924Z,19.20
2022-10-16T16:04:44.246Z,19.20
2022-10-16T16:07:15.232Z,19.10
2022-10-16T16:09:46.122Z,19.10
2022-10-16T16:12:21.252Z,19.00
2022-10-16T16:14:52.323Z,18.90
2022-10-16T16:17:25.335Z,18.90
2022-10-16T16:19:55.659Z,18.80
2022-10-16T16:22:26.213Z,18.80
2022-10-16T16:24:58.920Z,18.80
2022-10-16T16:27:34.506Z,18.70
2022-10-16T16:30:05.313Z,18.60
2022-10-16T16:32:35.509Z,18.50
2022-10-16T16:35:09.133Z,18.50
2022-10-16T16:37:39.268Z,18.50
2022-10-16T16:40:12.606Z,18.40
2022-10-16T16:42:52.147Z,18.40
2022-10-16T16:45:22.297Z,18.40
2022-10-16T16:47:52.467Z,18.40
2022-10-16T16:50:22.562Z,18.30
2022-10-16T16:52:52.694Z,18.30
2022-10-16T16:55:25.051Z,18.20
2022-10-16T16:58:00.296Z,18.20
2022-10-16T17:00:35.810Z,18.30
2022-10-16T17:03:13.558Z,18.40
2022-10-16T17:05:43.612Z,18.30
2022-10-16T17:08:16.467Z,18.30
2022-10-16T17:10:50.881Z,18.30
2022-10-16T17:13:25.723Z,18.30
2022-10-16T17:15:59.292Z,18.30
2022-10-16T17:18:29.391Z,18.30
2022-10-16T17:21:05.954Z,18.30
2022-10-16T17:23:40.506Z,18.30
2022-10-16T17:26:18.918Z,18.20
2022-10-16T17:28:59.571Z,18.20
2022-10-16T17:31:33.223Z,18.10
2022-10-16T17:34:08.841Z,18.00
2022-10-16T17:36:43.875Z,18.00
2022-10-16T17:39:23.654Z,18.00
2022-10-16T17:41:53.737Z,17.90
2022-10-16T17:44:29.426Z,17.90
2022-10-16T17:46:59.557Z,17.80
2022-10-16T17:49:35.386Z,17.80
2022-10-16T17:52:11.391Z,17.70
2022-10-16T17:54:44.235Z,17.70
2022-10-16T17:57:14.371Z,17.70
2022-10-16T17:59:49.384Z,17.70
2022-10-16T18:02:19.639Z,17.70
2022-10-16T18:04:49.748Z,17.70
2022-10-16T18:07:20.218Z,17.80
2022-10-16T18:10:10.228Z,17.70
2022-10-16T18:12:41.131Z,17.80
2022-10-16T18:15:14.642Z,17.80
2022-10-16T18:17:44.795Z,17.80
2022-10-16T18:20:15.690Z,17.80
2022-10-16T18:22:45.790Z,17.70
2022-10-16T18:25:25.032Z,17.70
2022-10-16T18:27:55.128Z,17.70
2022-10-16T18:30:27.772Z,17.60
2022-10-16T18:32:57.901Z,17.60
2022-10-16T18:35:35.250Z,17.60
2022-10-16T18:38:06.271Z,17.60
2022-10-16T18:40:39.274Z,17.50
2022-10-16T18:43:14.932Z,17.50
2022-10-16T18:45:58.987Z,17.50
2022-10-16T18:48:30.688Z,17.50
2022-10-16T18:51:13.871Z,17.50
2022-10-16T18:53:47.403Z,17.50
2022-10-16T18:56:21.908Z,17.50
2022-10-16T18:58:53.761Z,17.60
2022-10-16T19:01:28.553Z,17.50
2022-10-16T19:04:03.346Z,17.50
2022-10-16T19:06:36.752Z,17.50
2022-10-16T19:09:08.590Z,17.40
2022-10-16T19:11:41.836Z,17.30
2022-10-16T19:14:17.160Z,17.30
2022-10-16T19:16:52.192Z,17.20
2022-10-16T19:19:28.343Z,17.20
2022-10-16T19:22:11.729Z,17.10
2022-10-16T19:24:42.604Z,17.10
2022-10-16T19:27:18.839Z,17.10
2022-10-16T19:29:54.599Z,17.00
2022-10-16T19:32:30.425Z,17.00
2022-10-16T19:35:00.684Z,17.00
2022-10-16T19:37:30.975Z,16.90
2022-10-16T19:40:03.841Z,16.80
2022-10-16T19:42:36.772Z,16.70
2022-10-16T19:45:07.873Z,16.60
2022-10-16T19:47:46.474Z,16.50
2022-10-16T19:50:16.999Z,16.50
2022-10-16T19:52:50.134Z,16.40
2022-10-16T19:55:20.727Z,16.40
2022-10-16T19:57:54.046Z,16.40
2022-10-16T20:00:30.000Z,16.40
2022-10-16T20:03:04.935Z,16.40
2022-10-16T20:05:38.167Z,16.40
2022-10-16T20:08:09.047Z,16.30
2022-10-16T20:10:39.197Z,16.30
2022-10-16T20:13:18.456Z,16.30
2022-10-16T20:15:49.164Z,16.20
2022-10-16T20:18:22.008Z,16.20
2022-10-16T20:20:55.239Z,16.20
2022-10-16T20:23:26.519Z,16.20
2022-10-16T20:25:59.159Z,16.20
2022-10-16T20:28:30.719Z,16.20
2022-10-16T20:31:03.752Z,16.20
2022-10-16T20:33:36.490Z,16.20
2022-10-16T20:36:08.019Z,16.20
2022-10-16T20:38:40.244Z,16.10
2022-10-16T20:41:12.591Z,16.10
2022-10-16T20:43:48.080Z,16.10
2022-10-16T20:46:23.548Z,16.20
2022-10-16T20:49:05.905Z,16.20
2022-10-16T20:51:52.137Z,16.10
2022-10-16T20:54:24.891Z,16.20
2022-10-16T20:56:58.091Z,16.20
2022-10-16T20:59:31.316Z,16.30
2022-10-16T21:02:01.668Z,16.30
2022-10-16T21:04:36.695Z,16.30
2022-10-16T21:07:06.957Z,16.40
2022-10-16T21:09:40.755Z,16.30
2022-10-16T21:12:13.847Z,16.30
2022-10-16T21:15:13.274Z,16.40
2022-10-16T21:17:41.709Z,16.40
2022-10-16T21:20:14.723Z,16.40
2022-10-16T21:22:47.903Z,16.30
2022-10-16T21:25:18.293Z,16.40
2022-10-16T21:27:55.875Z,16.30
2022-10-16T21:30:26.019Z,16.30
2022-10-16T21:32:56.393Z,16.30
2022-10-16T21:35:31.571Z,16.20
2022-10-16T21:38:01.791Z,16.20
2022-10-16T21:40:32.897Z,16.20
2022-10-16T21:43:05.609Z,16.20
2022-10-16T21:45:37.611Z,16.10
2022-10-16T21:48:15.788Z,16.00
2022-10-16T21:50:53.663Z,16.00
2022-10-16T21:53:23.740Z,15.90
2022-10-16T21:55:56.628Z,15.90
2022-10-16T21:58:30.232Z,15.90
2022-10-16T22:01:02.990Z,15.90
2022-10-16T22:03:36.088Z,15.90
2022-10-16T22:06:13.731Z,15.90
2022-10-16T22:08:47.295Z,15.90
2022-10-16T22:11:23.717Z,15.90
2022-10-16T22:13:57.233Z,15.90
2022-10-16T22:16:30.000Z,15.90
2022-10-16T22:19:03.446Z,15.90
2022-10-16T22:21:42.740Z,15.90
2022-10-16T22:24:13.292Z,15.90
2022-10-16T22:26:43.559Z,15.90
2022-10-16T22:29:16.519Z,15.90
2022-10-16T22:31:54.870Z,15.90
2022-10-16T22:34:30.212Z,16.00
2022-10-16T22:37:03.041Z,15.90
2022-10-16T22:39:33.872Z,16.00
2022-10-16T22:42:03.940Z,16.00
2022-10-16T22:44:37.198Z,16.10
2022-10-16T22:47:07.579Z,16.10
2022-10-16T22:49:44.262Z,16.10
2022-10-16T22:52:17.735Z,16.10
2022-10-16T22:54:47.920Z,16.10
2022-10-16T22:57:18.136Z,16.10
2022-10-16T22:59:50.160Z,16.00
2022-10-16T23:02:23.123Z,16.00
2022-10-16T23:04:53.770Z,16.00
2022-10-16T23:07:30.962Z,16.00
2022-10-16T23:12:32.273Z,16.00
2022-10-16T23:15:05.206Z,16.00
2022-10-16T23:17:35.423Z,16.10
2022-10-16T23:20:05.711Z,16.10
2022-10-16T23:22:38.421Z,16.20
2022-10-16T23:25:09.918Z,16.30
2022-10-16T23:27:40.009Z,16.30
2022-10-16T23:30:19.791Z,16.40
2022-10-16T23:32:52.040Z,16.40
2022-10-16T23:35:24.791Z,16.50
2022-10-16T23:38:00.528Z,16.50
2022-10-16T23:40:33.167Z,16.60
2022-10-16T23:43:03.247Z,16.50
2022-10-16T23:45:35.866Z,16.60
2022-10-16T23:48:10.544Z,16.60
2022-10-16T23:50:40.660Z,16.60
2022-10-16T23:53:20.947Z,16.60
2022-10-16T23:55:58.535Z,16.60
2022-10-16T23:58:29.115Z,16.70
